Time;durP1;ratioP1;P1;durP2;ratioP2;P2;SDS_P1;SDS_P2;PMS_P1;PMS_P2;Temp;Humidity;BMP_temperature;BMP_pressure;BME280_temperature;BME280_humidity;BME280_pressure;Samples;Min_cycle;Max_cycle;Signal;HPM_P1;HPM_P2
2024/04/10 00:02:16;;;;;;;4.75;1.73;;;;;;;19.46;43.35;101973.94;5435695;26;20336;-70
2024/04/10 00:04:41;;;;;;;5.93;1.85;;;;;;;19.46;43.13;101979.22;5453459;26;20397;-71
2024/04/10 00:07:06;;;;;;;6.78;1.73;;;;;;;19.45;43.24;101980.16;5453878;26;20500;-71
2024/04/10 00:09:32;;;;;;;5.10;1.70;;;;;;;19.35;43.24;101972.84;5453360;26;19991;-68
2024/04/10 00:11:57;;;;;;;5.82;1.58;;;;;;;19.34;43.29;101973.81;5452481;26;20017;-69
2024/04/10 00:14:22;;;;;;;6.60;2.17;;;;;;;19.36;43.41;101977.19;5454149;26;20066;-70
2024/04/10 00:16:49;;;;;;;5.55;1.77;;;;;;;19.43;42.93;101993.47;5452534;26;20447;-69
2024/04/10 00:19:15;;;;;;;5.72;1.60;;;;;;;19.19;43.24;101957.19;5453918;26;19990;-70
2024/04/10 00:21:43;;;;;;;4.90;1.60;;;;;;;19.37;43.26;101986.81;5453510;26;19995;-69
2024/04/10 00:24:08;;;;;;;5.82;1.50;;;;;;;19.40;43.31;101998.97;5450968;26;20062;-70
2024/04/10 00:26:33;;;;;;;6.60;1.75;;;;;;;19.30;43.37;101984.72;5453162;26;19990;-68
2024/04/10 00:28:59;;;;;;;6.40;1.92;;;;;;;19.39;43.07;102003.41;5453599;26;20519;-68
2024/04/10 00:31:24;;;;;;;6.35;1.85;;;;;;;19.36;43.25;102002.78;5406642;26;20006;-68
2024/04/10 00:33:49;;;;;;;6.57;2.05;;;;;;;19.28;42.79;101994.53;5452904;26;20406;-69
2024/04/10 00:36:15;;;;;;;5.93;1.73;;;;;;;19.23;42.97;101983.41;5452399;26;20416;-68
2024/04/10 00:38:40;;;;;;;4.45;1.58;;;;;;;19.28;42.83;102000.66;5452170;26;19998;-69
2024/04/10 00:41:06;;;;;;;7.45;1.70;;;;;;;19.22;43.16;101985.22;5407439;26;20471;-68
2024/04/10 00:43:33;;;;;;;7.47;1.88;;;;;;;19.26;42.92;102001.72;5452511;26;19990;-68
2024/04/10 00:46:31;;;;;;;9.82;1.80;;;;;;;19.35;43.22;102031.00;5452624;26;21183;-73
2024/04/10 00:48:57;;;;;;;6.72;1.90;;;;;;;19.27;43.07;102020.09;5364374;26;19990;-69
2024/04/10 00:51:23;;;;;;;6.90;1.63;;;;;;;19.33;43.29;102032.91;5449491;26;20064;-71
2024/04/10 00:53:49;;;;;;;4.88;1.70;;;;;;;19.34;42.89;102041.69;5449883;26;19995;-70
2024/04/10 00:56:15;;;;;;;5.75;1.92;;;;;;;19.22;43.10;102016.94;5452967;26;20429;-67
2024/04/10 00:58:41;;;;;;;5.55;1.42;;;;;;;19.28;43.17;102024.47;5452647;26;19990;-71
2024/04/10 01:01:08;;;;;;;5.10;1.67;;;;;;;19.31;43.04;102026.91;5451170;26;20446;-70
2024/04/10 01:03:34;;;;;;;6.15;2.10;;;;;;;19.17;43.12;102009.31;5449909;26;20448;-68
2024/04/10 01:06:01;;;;;;;7.28;1.80;;;;;;;19.20;42.92;102011.75;5420695;26;20005;-69
2024/04/10 01:08:31;;;;;;;4.95;1.60;;;;;;;19.25;42.86;102029.06;5452034;26;19991;-72
2024/04/10 01:10:59;;;;;;;5.90;1.80;;;;;;;19.30;42.83;102042.84;5451983;26;20021;-72
2024/04/10 01:13:26;;;;;;;5.28;1.80;;;;;;;19.21;43.12;102039.03;5453164;26;20017;-68
2024/04/10 01:15:51;;;;;;;5.57;1.80;;;;;;;19.20;43.09;102038.19;5420263;26;19994;-72
2024/04/10 01:18:17;;;;;;;5.03;1.70;;;;;;;19.26;43.21;102046.63;5449460;26;20446;-68
2024/04/10 01:20:42;;;;;;;4.70;1.70;;;;;;;19.23;42.77;102046.84;5451404;26;20448;-71
2024/04/10 01:23:07;;;;;;;5.25;1.77;;;;;;;19.27;42.96;102066.84;5453362;26;19991;-73
2024/04/10 01:25:33;;;;;;;6.00;2.00;;;;;;;19.22;42.90;102069.78;5452920;26;19990;-71
2024/04/10 01:27:58;;;;;;;6.65;2.10;;;;;;;19.25;42.97;102074.88;5451063;26;19994;-72
2024/04/10 01:30:24;;;;;;;5.82;1.80;;;;;;;19.22;43.04;102077.72;5453089;26;20002;-70
2024/04/10 01:32:49;;;;;;;7.10;1.52;;;;;;;19.20;42.95;102066.38;5452554;26;20109;-69
2024/04/10 01:35:15;;;;;;;5.03;1.42;;;;;;;19.19;43.30;102085.84;5452474;26;20002;-70
2024/04/10 01:37:40;;;;;;;5.80;1.85;;;;;;;19.12;42.88;102074.84;5451696;26;20428;-73
2024/04/10 01:40:06;;;;;;;5.72;2.10;;;;;;;19.17;42.85;102087.75;5451513;26;19997;-69
2024/04/10 01:42:32;;;;;;;5.95;1.67;;;;;;;19.02;42.79;102071.94;5452364;26;20084;-69
2024/04/10 01:44:58;;;;;;;5.55;1.58;;;;;;;19.07;43.34;102076.91;5451925;26;19999;-69
2024/04/10 01:47:23;;;;;;;7.07;1.80;;;;;;;19.17;43.11;102087.75;5452460;26;19998;-69
2024/04/10 01:49:50;;;;;;;5.57;2.13;;;;;;;19.17;43.20;102087.75;5450791;26;20027;-72
2024/04/10 01:52:15;;;;;;;5.25;1.52;;;;;;;19.23;43.14;102097.06;5451423;26;19994;-69
2024/04/10 01:54:41;;;;;;;6.53;1.67;;;;;;;19.05;43.33;102076.19;5450466;26;19994;-69
2024/04/10 01:57:06;;;;;;;5.07;1.52;;;;;;;19.10;43.11;102089.09;5452399;26;20034;-69
2024/04/10 01:59:31;;;;;;;4.70;1.73;;;;;;;19.06;43.31;102092.88;5452699;26;19991;-68
2024/04/10 02:01:57;;;;;;;7.60;2.08;;;;;;;19.12;43.16;102105.69;5450248;26;20002;-72
2024/04/10 02:04:22;;;;;;;5.03;1.40;;;;;;;19.19;43.26;102128.97;5450871;26;20002;-71
2024/04/10 02:06:47;;;;;;;5.40;1.52;;;;;;;19.07;43.39;102105.16;5451055;26;20044;-70
2024/04/10 02:09:13;;;;;;;4.65;1.38;;;;;;;19.15;43.08;102127.50;5420802;26;19998;-72
2024/04/10 02:11:39;;;;;;;5.55;1.52;;;;;;;19.09;43.37;102119.97;5450736;26;20286;-70
2024/04/10 02:14:04;;;;;;;4.47;1.27;;;;;;;19.16;43.38;102133.63;5451604;26;19995;-69
2024/04/10 02:16:30;;;;;;;4.68;1.40;;;;;;;19.14;43.26;102139.00;5452075;26;20403;-68
2024/04/10 02:18:56;;;;;;;6.38;1.75;;;;;;;19.16;43.42;102142.38;5450364;26;20006;-72
2024/04/10 02:21:22;;;;;;;5.95;1.70;;;;;;;19.07;43.39;102135.06;5451163;26;19994;-67
2024/04/10 02:23:48;;;;;;;5.38;1.63;;;;;;;19.16;43.34;102155.59;5451256;26;20336;-68
2024/04/10 02:26:14;;;;;;;6.28;1.65;;;;;;;19.15;43.64;102153.91;5451894;26;20034;-71
2024/04/10 02:28:40;;;;;;;6.90;1.83;;;;;;;19.10;43.33;102149.88;5419668;26;19991;-72
2024/04/10 02:31:06;;;;;;;3.92;1.60;;;;;;;19.08;43.36;102147.31;5404862;26;20009;-71
2024/04/10 02:33:37;;;;;;;4.30;1.40;;;;;;;19.06;43.42;102148.34;5451916;26;19998;-68
2024/04/10 02:36:06;;;;;;;4.63;1.52;;;;;;;19.14;43.61;102167.22;5451025;26;19990;-68
2024/04/10 02:38:33;;;;;;;4.57;1.50;;;;;;;19.11;43.60;102173.56;5450228;26;19991;-68
2024/04/10 02:40:58;;;;;;;4.43;1.27;;;;;;;19.03;43.52;102163.47;5450262;26;19994;-69
2024/04/10 02:43:24;;;;;;;3.53;1.40;;;;;;;19.13;43.70;102184.03;5419529;26;20714;-69
2024/04/10 02:45:56;;;;;;;5.07;1.50;;;;;;;19.13;43.61;102189.31;5449720;26;20064;-72
2024/04/10 02:48:22;;;;;;;4.25;1.30;;;;;;;19.07;43.48;102181.78;5425811;26;20034;-68
2024/04/10 02:50:47;;;;;;;5.20;1.50;;;;;;;19.11;43.50;102196.50;5449347;26;19994;-69
2024/04/10 02:53:13;;;;;;;6.20;1.75;;;;;;;19.09;43.27;102198.38;5433720;26;20010;-68
2024/04/10 02:55:43;;;;;;;5.43;1.83;;;;;;;18.95;43.41;102181.63;5448900;26;19990;-68
2024/04/10 02:58:08;;;;;;;5.15;1.40;;;;;;;19.03;43.41;102196.97;5450688;26;19990;-69
2024/04/10 03:00:35;;;;;;;5.65;1.58;;;;;;;19.03;43.68;102191.69;5450162;26;19999;-73
2024/04/10 03:03:00;;;;;;;5.38;1.52;;;;;;;19.02;43.43;102197.91;5447891;26;19994;-69
2024/04/10 03:05:25;;;;;;;5.85;1.70;;;;;;;18.98;43.42;102202.56;5433162;26;20351;-70
2024/04/10 03:07:51;;;;;;;5.53;1.70;;;;;;;19.06;43.39;102217.06;5450010;26;19999;-69
2024/04/10 03:10:17;;;;;;;4.50;1.50;;;;;;;19.07;43.37;102221.41;5451800;26;20000;-70
2024/04/10 03:12:42;;;;;;;4.93;1.55;;;;;;;18.96;43.30;102207.09;5452431;26;20475;-68
2024/04/10 03:15:09;;;;;;;6.20;1.70;;;;;;;19.05;43.47;102234.72;5453917;26;19991;-71
2024/04/10 03:17:34;;;;;;;3.33;1.10;;;;;;;18.98;43.53;102228.97;5453945;26;19994;-68
2024/04/10 03:20:00;;;;;;;5.18;1.58;;;;;;;19.02;43.50;102243.66;5454505;26;20725;-68
2024/04/10 03:22:25;;;;;;;4.45;1.70;;;;;;;18.84;43.58;102214.00;5453540;26;20031;-68
2024/04/10 03:24:50;;;;;;;6.00;1.70;;;;;;;18.96;43.67;102243.22;5454069;26;20455;-69
2024/04/10 03:27:16;;;;;;;5.20;1.60;;;;;;;19.03;43.52;102250.66;5454861;26;19998;-68
2024/04/10 03:29:41;;;;;;;7.50;1.98;;;;;;;19.06;43.54;102256.69;5453217;26;20204;-72
2024/04/10 03:32:06;;;;;;;4.45;1.35;;;;;;;18.90;43.61;102235.66;5423177;26;20070;-68
2024/04/10 03:34:32;;;;;;;5.68;1.48;;;;;;;19.00;43.59;102255.31;5452784;26;20002;-69
2024/04/10 03:36:57;;;;;;;5.18;1.48;;;;;;;19.03;43.83;102260.41;5407696;26;19994;-69
2024/04/10 03:39:23;;;;;;;5.10;1.30;;;;;;;18.92;43.45;102247.00;5455416;26;19998;-70
2024/04/10 03:41:49;;;;;;;5.20;1.58;;;;;;;18.93;43.89;102254.84;5454500;26;19990;-71
2024/04/10 03:44:15;;;;;;;4.43;1.53;;;;;;;19.02;43.68;102270.09;5453781;26;19995;-70
2024/04/10 03:46:40;;;;;;;4.85;1.40;;;;;;;18.99;43.22;102280.00;5454384;26;20321;-69
2024/04/10 03:49:05;;;;;;;5.38;1.50;;;;;;;18.90;43.70;102262.97;5452264;26;19994;-72
2024/04/10 03:51:30;;;;;;;5.55;1.30;;;;;;;18.90;43.68;102276.16;5454198;26;20067;-69
2024/04/10 03:53:56;;;;;;;4.38;1.50;;;;;;;19.02;43.58;102298.31;5452755;26;20324;-71
2024/04/10 03:56:21;;;;;;;4.20;1.17;;;;;;;19.00;43.80;102302.84;5455103;26;19990;-72
2024/04/10 03:58:49;;;;;;;5.30;1.52;;;;;;;18.89;43.69;102287.66;5453187;26;19998;-71
2024/04/10 04:01:14;;;;;;;4.80;1.48;;;;;;;18.91;43.60;102288.41;5452086;26;20009;-68
2024/04/10 04:03:40;;;;;;;3.72;1.17;;;;;;;19.01;43.83;102310.69;5453202;26;20449;-70
2024/04/10 04:06:05;;;;;;;4.40;1.42;;;;;;;18.92;43.50;102297.22;5453371;26;19990;-68
2024/04/10 04:08:31;;;;;;;6.43;1.60;;;;;;;18.87;43.70;102286.06;5454078;26;20001;-68
2024/04/10 04:10:57;;;;;;;5.00;1.30;;;;;;;18.90;43.51;102301.72;5451912;26;20007;-68
2024/04/10 04:13:22;;;;;;;4.07;1.30;;;;;;;18.98;43.80;102313.53;5453317;26;20083;-71
2024/04/10 04:15:48;;;;;;;5.13;1.55;;;;;;;18.92;43.60;102305.13;5453489;26;20135;-72
2024/04/10 04:18:13;;;;;;;4.15;1.40;;;;;;;18.85;43.67;102302.88;5453725;26;20091;-68
2024/04/10 04:20:39;;;;;;;5.30;1.40;;;;;;;18.93;43.51;102323.53;5454290;26;20022;-68
2024/04/10 04:23:04;;;;;;;4.45;1.40;;;;;;;18.88;43.63;102316.81;5421486;26;20478;-69
2024/04/10 04:25:35;;;;;;;4.45;1.48;;;;;;;18.87;43.67;102326.53;5451345;26;20002;-67
2024/04/10 04:28:01;;;;;;;4.15;1.30;;;;;;;18.92;43.96;102331.53;5453515;26;20278;-69
2024/04/10 04:30:27;;;;;;;2.95;1.10;;;;;;;18.82;43.45;102320.66;5452244;26;20002;-69
2024/04/10 04:32:53;;;;;;;4.10;1.27;;;;;;;18.96;43.78;102347.13;5452547;26;20006;-70
2024/04/10 04:35:19;;;;;;;6.22;1.40;;;;;;;18.85;43.58;102339.84;5407401;26;19994;-69
2024/04/10 04:37:53;;;;;;;5.15;1.20;;;;;;;18.77;43.46;102323.59;5420605;26;19994;-73
2024/04/10 04:40:18;;;;;;;6.03;1.60;;;;;;;18.89;43.63;102358.16;5453803;26;19999;-69
2024/04/10 04:42:44;;;;;;;4.53;1.50;;;;;;;18.93;43.63;102371.09;5452785;26;20097;-70
2024/04/10 04:45:09;;;;;;;4.22;1.45;;;;;;;18.90;43.40;102367.75;5421224;26;20069;-68
2024/04/10 04:47:34;;;;;;;4.55;1.38;;;;;;;18.80;43.53;102357.75;5452321;26;20009;-69
2024/04/10 04:50:00;;;;;;;5.05;1.33;;;;;;;18.82;43.78;102370.84;5452834;26;20005;-68
2024/04/10 04:52:25;;;;;;;4.63;1.13;;;;;;;18.93;43.69;102380.78;5451921;26;20037;-71
2024/04/10 04:54:51;;;;;;;4.00;1.42;;;;;;;18.77;43.63;102360.56;5453991;26;20550;-68
2024/04/10 04:57:16;;;;;;;3.80;1.20;;;;;;;18.82;43.75;102373.50;5453018;26;19995;-71
2024/04/10 04:59:42;;;;;;;4.25;1.42;;;;;;;18.92;43.77;102401.06;5452598;26;20528;-69
2024/04/10 05:02:08;;;;;;;5.38;1.40;;;;;;;18.71;43.76;102365.34;5451683;26;20078;-67
2024/04/10 05:07:17;;;;;;;3.97;1.15;;;;;;;18.78;43.76;102393.94;5451799;26;20466;-67
2024/04/10 05:09:48;;;;;;;4.07;1.33;;;;;;;18.80;43.61;102396.47;5436589;26;19990;-68
2024/04/10 05:12:13;;;;;;;3.95;1.20;;;;;;;18.77;43.46;102408.09;5423728;26;20145;-67
2024/04/10 05:14:38;;;;;;;4.85;1.58;;;;;;;18.85;43.50;102419.09;5452856;26;19998;-67
2024/04/10 05:17:04;;;;;;;3.80;1.40;;;;;;;18.89;43.82;102422.38;5451932;26;20448;-67
2024/04/10 05:19:29;;;;;;;4.20;1.10;;;;;;;18.89;43.49;102427.66;5452078;26;19999;-70
2024/04/10 05:21:54;;;;;;;6.50;1.30;;;;;;;18.72;43.77;102406.66;5452291;26;19990;-71
2024/04/10 05:24:23;;;;;;;3.78;1.20;;;;;;;18.82;43.50;102429.81;5451011;26;19990;-68
2024/04/10 05:26:49;;;;;;;4.03;1.42;;;;;;;18.88;43.69;102433.88;5451624;26;19990;-71
2024/04/10 05:29:14;;;;;;;4.47;1.50;;;;;;;18.76;43.57;102430.16;5453925;26;20005;-67
2024/04/10 05:31:39;;;;;;;4.83;1.50;;;;;;;18.74;43.45;102428.53;5451708;26;19992;-69
2024/04/10 05:34:05;;;;;;;4.65;1.35;;;;;;;18.83;43.64;102455.28;5451128;26;20261;-67
2024/04/10 05:36:30;;;;;;;3.17;1.40;;;;;;;18.82;43.80;102458.00;5450801;26;19997;-68
2024/04/10 05:38:59;;;;;;;4.28;1.50;;;;;;;18.62;43.87;102433.59;5451178;26;20006;-68
2024/04/10 05:41:24;;;;;;;4.15;1.40;;;;;;;18.76;43.88;102464.50;5452564;26;19990;-69
2024/04/10 05:43:50;;;;;;;3.17;0.95;;;;;;;18.66;43.96;102448.34;5419302;26;20091;-71
2024/04/10 05:46:15;;;;;;;4.53;1.50;;;;;;;18.77;43.76;102475.91;5452353;26;19994;-68
2024/04/10 05:48:40;;;;;;;3.22;1.08;;;;;;;18.74;43.66;102465.50;5451382;26;20885;-71
2024/04/10 05:51:06;;;;;;;3.88;1.40;;;;;;;18.85;43.85;102489.56;5420395;26;19990;-68
2024/04/10 05:53:33;;;;;;;3.72;1.25;;;;;;;18.79;43.98;102480.16;5450915;26;20232;-68
2024/04/10 05:57:29;;;;;;;3.78;1.27;;;;;;;18.94;43.80;102504.00;5419036;25;20351;-69
2024/04/10 05:59:54;;;;;;;3.60;1.23;;;;;;;18.87;44.05;102497.38;5398918;26;19999;-69
2024/04/10 06:02:20;;;;;;;4.78;1.30;;;;;;;18.87;43.76;102500.88;5400352;26;20003;-68
2024/04/10 06:04:46;;;;;;;4.35;1.10;;;;;;;18.85;43.59;102508.91;5398384;26;20076;-71
2024/04/10 06:07:11;;;;;;;4.53;1.20;;;;;;;18.97;43.77;102538.19;5402557;26;20015;-69
2024/04/10 06:09:36;;;;;;;4.20;1.48;;;;;;;18.90;43.84;102526.25;5397703;26;20002;-71
2024/04/10 06:12:02;;;;;;;4.63;1.30;;;;;;;18.93;44.18;102529.59;5402340;26;20014;-69
2024/04/10 06:14:27;;;;;;;4.80;1.30;;;;;;;18.97;43.99;102539.03;5399165;26;20006;-69
2024/04/10 06:16:52;;;;;;;5.25;1.30;;;;;;;19.00;43.86;102551.22;5394004;26;20035;-68
2024/04/10 06:19:19;;;;;;;6.68;1.27;;;;;;;18.94;43.87;102547.13;5392267;26;20715;-70
2024/04/10 06:21:44;;;;;;;4.43;1.42;;;;;;;18.95;43.73;102554.13;5394502;26;20017;-72
2024/04/10 06:24:13;;;;;;;4.00;1.10;;;;;;;19.02;43.91;102558.09;5392610;26;20484;-72
2024/04/10 06:26:38;;;;;;;4.43;1.20;;;;;;;18.88;44.12;102528.16;5391439;26;19995;-68
2024/04/10 06:29:04;;;;;;;4.57;1.48;;;;;;;19.07;44.08;102564.91;5413342;26;20337;-68
2024/04/10 06:31:29;;;;;;;3.85;1.05;;;;;;;18.99;44.25;102555.66;5415348;26;19995;-68
2024/04/10 06:33:54;;;;;;;4.53;1.30;;;;;;;19.05;43.67;102561.53;5414378;26;20003;-73
2024/04/10 06:36:19;;;;;;;2.63;1.00;;;;;;;19.07;43.88;102581.63;5411693;26;19991;-69
2024/04/10 06:38:45;;;;;;;4.85;1.40;;;;;;;19.06;43.71;102579.94;5414969;26;20002;-72
2024/04/10 06:41:10;;;;;;;4.53;1.20;;;;;;;19.07;44.00;102584.25;5414980;26;20006;-69
2024/04/10 06:43:35;;;;;;;4.00;1.20;;;;;;;18.92;44.37;102558.75;5413692;26;19995;-70
2024/04/10 06:46:02;;;;;;;4.38;1.27;;;;;;;19.06;44.54;102572.00;5413329;26;19992;-69
2024/04/10 06:48:28;;;;;;;4.10;1.20;;;;;;;18.91;44.41;102560.50;5414424;26;19991;-68
2024/04/10 06:51:01;;;;;;;4.80;1.58;;;;;;;18.94;44.43;102564.78;5415331;26;20002;-69
2024/04/10 06:53:27;;;;;;;5.63;1.30;;;;;;;18.98;44.69;102579.53;5384311;26;19995;-69
2024/04/10 06:56:00;;;;;;;5.30;1.20;;;;;;;19.10;44.60;102610.50;5414499;26;20286;-70
2024/04/10 06:58:27;;;;;;;4.72;1.40;;;;;;;19.06;44.67;102594.91;5413641;26;19991;-72
2024/04/10 07:01:00;;;;;;;4.18;1.40;;;;;;;19.05;44.52;102595.88;5414624;26;20113;-70
2024/04/10 07:03:30;;;;;;;4.05;1.38;;;;;;;19.01;45.04;102597.84;5414395;26;20011;-69
2024/04/10 07:06:05;;;;;;;3.58;1.10;;;;;;;19.12;44.79;102619.22;5415522;26;20340;-68
2024/04/10 07:08:31;;;;;;;5.78;1.48;;;;;;;19.12;45.19;102627.16;5401505;26;20003;-68
2024/04/10 07:10:57;;;;;;;4.55;1.33;;;;;;;19.01;44.98;102605.78;5400181;26;19995;-70
2024/04/10 07:13:24;;;;;;;4.32;1.30;;;;;;;19.15;45.31;102634.03;5395677;26;20445;-72
2024/04/10 07:16:03;;;;;;;4.18;1.10;;;;;;;19.02;45.22;102615.38;5399530;26;21240;-69
2024/04/10 07:18:30;;;;;;;3.22;1.10;;;;;;;19.12;45.46;102629.78;5398159;26;19991;-72
2024/04/10 07:20:59;;;;;;;6.18;1.40;;;;;;;19.10;45.42;102626.38;5398620;26;20437;-71
2024/04/10 07:23:24;;;;;;;3.97;1.20;;;;;;;19.08;45.25;102620.31;5400623;26;19999;-69
2024/04/10 07:25:50;;;;;;;5.32;1.30;;;;;;;19.15;45.40;102629.63;5399904;26;20010;-69
2024/04/10 07:28:15;;;;;;;4.78;1.20;;;;;;;19.04;45.33;102608.22;5400080;26;20439;-69
2024/04/10 07:30:48;;;;;;;5.43;1.48;;;;;;;19.16;45.48;102633.94;5353774;25;20472;-67
2024/04/10 07:33:13;;;;;;;6.40;1.58;;;;;;;19.07;45.47;102629.19;5399941;26;20072;-70
2024/04/10 07:35:38;;;;;;;4.53;1.27;;;;;;;19.17;45.40;102640.09;5335288;26;20000;-71
2024/04/10 07:38:03;;;;;;;4.63;1.45;;;;;;;19.12;45.56;102626.28;5397096;26;20726;-69
2024/04/10 07:40:29;;;;;;;5.43;1.60;;;;;;;19.12;45.04;102640.34;5396984;26;20065;-71
2024/04/10 07:42:55;;;;;;;4.97;1.10;;;;;;;19.09;45.22;102626.44;5399766;26;20551;-68
2024/04/10 07:45:20;;;;;;;4.05;1.00;;;;;;;19.16;45.68;102647.16;5400046;26;20539;-68
2024/04/10 07:47:45;;;;;;;5.50;1.33;;;;;;;19.20;45.00;102650.47;5399343;26;20004;-69
2024/04/10 07:50:10;;;;;;;5.72;1.17;;;;;;;19.04;45.24;102618.78;5399987;26;20530;-68
2024/04/10 07:52:36;;;;;;;3.67;1.23;;;;;;;19.23;45.20;102657.38;5400100;26;20127;-69
2024/04/10 07:55:01;;;;;;;3.22;1.27;;;;;;;19.23;45.44;102646.81;5396331;26;20031;-70
2024/04/10 07:57:26;;;;;;;4.55;1.10;;;;;;;19.13;45.21;102641.19;5395961;26;20004;-69
2024/04/10 07:59:52;;;;;;;5.18;1.27;;;;;;;19.15;45.33;102642.84;5396549;26;20036;-72
2024/04/10 08:02:18;;;;;;;4.45;1.15;;;;;;;19.19;45.16;102651.44;5393201;26;20014;-69
2024/04/10 08:04:44;;;;;;;4.75;1.33;;;;;;;19.22;45.41;102664.47;5396220;26;20539;-68
2024/04/10 08:07:09;;;;;;;5.20;1.60;;;;;;;19.23;44.97;102667.94;5397835;26;20058;-70
2024/04/10 08:09:36;;;;;;;4.63;1.00;;;;;;;19.34;44.89;102684.91;5397003;26;20043;-68
2024/04/10 08:12:01;;;;;;;4.72;1.45;;;;;;;19.27;44.96;102672.13;5396848;26;19999;-69
2024/04/10 08:14:27;;;;;;;3.95;1.23;;;;;;;19.32;44.96;102681.50;5395597;26;19999;-71
2024/04/10 08:16:52;;;;;;;6.53;1.67;;;;;;;19.31;45.09;102685.09;5395994;26;20097;-69
2024/04/10 08:19:17;;;;;;;3.83;1.05;;;;;;;19.37;44.85;102687.34;5394614;26;20010;-71
2024/04/10 08:21:45;;;;;;;5.07;1.50;;;;;;;18.94;44.75;102613.19;5396277;26;20003;-73
2024/04/10 08:24:10;;;;;;;5.78;1.30;;;;;;;19.32;44.93;102673.56;5396500;26;20014;-70
2024/04/10 08:26:37;;;;;;;4.82;1.20;;;;;;;19.37;44.69;102681.22;5398433;26;19996;-68
2024/04/10 08:29:03;;;;;;;3.85;1.10;;;;;;;19.43;44.68;102687.97;5398175;26;20053;-68
2024/04/10 08:31:28;;;;;;;3.92;0.93;;;;;;;19.43;44.35;102688.81;5397594;26;20003;-68
2024/04/10 08:33:54;;;;;;;6.57;1.13;;;;;;;19.49;44.91;102699.03;5397553;26;19999;-72
2024/04/10 08:36:21;;;;;;;6.55;1.20;;;;;;;19.47;44.65;102694.75;5398444;26;20007;-68
2024/04/10 08:38:47;;;;;;;4.43;0.90;;;;;;;19.29;44.58;102663.16;5397037;26;20001;-68
2024/04/10 08:41:16;;;;;;;5.97;1.35;;;;;;;19.45;44.53;102689.56;5398234;26;20000;-69
2024/04/10 08:43:43;;;;;;;7.03;1.48;;;;;;;19.32;44.52;102665.63;5397159;26;20785;-72
2024/04/10 08:46:09;;;;;;;3.80;1.00;;;;;;;19.44;44.28;102695.81;5398308;26;20006;-68
2024/04/10 08:48:37;;;;;;;5.43;1.40;;;;;;;19.46;44.40;102703.66;5397777;26;19992;-72
2024/04/10 08:51:07;;;;;;;3.85;1.00;;;;;;;19.45;44.11;102710.72;5397510;26;19991;-72
2024/04/10 08:53:35;;;;;;;2.83;1.10;;;;;;;19.43;44.14;102701.19;5398607;26;20451;-70
2024/04/10 08:56:01;;;;;;;5.78;1.38;;;;;;;19.36;44.34;102698.91;5397811;26;20007;-70
2024/04/10 08:58:27;;;;;;;4.88;1.40;;;;;;;19.43;44.09;102717.91;5397477;26;20426;-69
2024/04/10 09:00:52;;;;;;;4.53;1.20;;;;;;;19.46;43.93;102723.00;5398157;26;20016;-70
2024/04/10 09:03:17;;;;;;;5.18;1.27;;;;;;;19.40;44.02;102716.25;5394585;26;19995;-69
2024/04/10 09:05:43;;;;;;;5.00;1.20;;;;;;;19.57;43.96;102746.19;5396674;26;20029;-68
2024/04/10 09:08:09;;;;;;;3.92;1.20;;;;;;;19.56;43.75;102739.19;5395916;26;20458;-68
2024/04/10 09:10:35;;;;;;;3.72;0.98;;;;;;;19.56;43.66;102733.91;5397589;26;20806;-71
2024/04/10 09:13:12;;;;;;;5.25;1.20;;;;;;;19.46;44.10;102727.47;5396516;26;20006;-69
2024/04/10 09:15:38;;;;;;;4.90;1.45;;;;;;;19.47;43.93;102735.31;5397066;26;20126;-71
2024/04/10 09:18:04;;;;;;;4.22;1.13;;;;;;;19.58;43.70;102763.75;5397290;26;19999;-69
2024/04/10 09:20:30;;;;;;;3.65;0.90;;;;;;;19.50;43.61;102745.72;5395229;26;20334;-69
2024/04/10 09:23:01;;;;;;;3.75;1.23;;;;;;;19.39;43.40;102727.81;5397273;26;19995;-68
2024/04/10 09:25:26;;;;;;;3.50;1.02;;;;;;;19.60;43.59;102758.38;5397385;26;20003;-71
2024/04/10 09:28:05;;;;;;;3.88;1.02;;;;;;;19.46;43.21;102740.69;5396482;26;20051;-68
2024/04/10 09:30:31;;;;;;;5.72;1.40;;;;;;;19.54;43.58;102746.38;5395670;26;20631;-71
2024/04/10 09:32:58;;;;;;;6.30;1.33;;;;;;;19.48;43.38;102736.16;5394334;26;20003;-70
2024/04/10 09:35:25;;;;;;;4.60;1.25;;;;;;;19.63;43.39;102760.84;5397355;26;20061;-71
2024/04/10 09:37:57;;;;;;;4.05;1.15;;;;;;;19.55;43.71;102751.56;5395137;26;20421;-70
2024/04/10 09:40:24;;;;;;;4.47;1.00;;;;;;;19.60;43.70;102758.38;5397125;26;20011;-72
2024/04/10 09:43:13;;;;;;;4.03;1.20;;;;;;;19.64;43.39;102762.56;5396944;26;20064;-69
2024/04/10 09:45:43;;;;;;;3.30;0.93;;;;;;;19.55;43.50;102756.88;5396816;26;20442;-69
2024/04/10 09:48:09;;;;;;;4.60;1.00;;;;;;;19.62;43.22;102759.16;5396933;26;19992;-72
2024/04/10 09:50:39;;;;;;;4.30;1.08;;;;;;;19.67;43.58;102765.03;5397346;26;20010;-69
2024/04/10 09:53:06;;;;;;;3.15;1.02;;;;;;;19.53;43.10;102732.28;5396102;26;20077;-71
2024/04/10 09:55:38;;;;;;;4.22;1.33;;;;;;;19.52;43.04;102732.41;5396517;26;20547;-70
2024/04/10 09:58:06;;;;;;;3.38;0.90;;;;;;;19.63;42.81;102758.19;5395437;26;21093;-71
2024/04/10 10:00:33;;;;;;;5.60;0.80;;;;;;;19.57;43.03;102762.06;5396596;26;19995;-69
2024/04/10 10:03:09;;;;;;;4.93;1.15;;;;;;;19.52;43.01;102737.69;5394423;26;20003;-68
2024/04/10 10:05:36;;;;;;;3.58;1.02;;;;;;;19.53;43.06;102740.22;5396475;26;19992;-70
2024/04/10 10:08:06;;;;;;;3.20;1.13;;;;;;;19.60;42.77;102756.59;5396067;26;19991;-70
2024/04/10 10:10:44;;;;;;;4.93;1.20;;;;;;;19.58;42.77;102756.69;5396538;26;20033;-70
2024/04/10 10:13:10;;;;;;;5.35;1.38;;;;;;;19.63;42.59;102759.06;5394840;26;20003;-70
2024/04/10 10:15:36;;;;;;;3.28;0.90;;;;;;;19.54;42.36;102762.25;5396334;26;20014;-70
2024/04/10 10:18:01;;;;;;;2.70;0.90;;;;;;;19.68;43.03;102780.81;5395201;26;20465;-69
2024/04/10 10:20:26;;;;;;;2.42;0.88;;;;;;;19.65;42.58;102769.56;5396514;26;20045;-69
2024/04/10 10:23:01;;;;;;;3.45;0.85;;;;;;;19.67;42.84;102780.91;5395493;26;20073;-68
2024/04/10 10:25:27;;;;;;;2.53;0.80;;;;;;;19.55;43.16;102766.56;5396243;26;20812;-68
2024/04/10 10:28:07;;;;;;;4.22;0.90;;;;;;;19.55;42.99;102769.22;5395458;26;20157;-69
2024/04/10 10:30:33;;;;;;;3.17;0.68;;;;;;;19.53;42.93;102768.47;5395846;26;20002;-69
2024/04/10 10:33:05;;;;;;;6.10;1.00;;;;;;;19.55;43.30;102769.22;5394701;26;20000;-70
2024/04/10 10:35:31;;;;;;;4.40;0.95;;;;;;;19.66;42.63;102787.13;5397895;26;20476;-68
2024/04/10 10:37:57;;;;;;;3.47;0.90;;;;;;;19.52;42.92;102759.69;5394506;26;19999;-67
2024/04/10 10:40:26;;;;;;;4.63;1.00;;;;;;;19.61;42.68;102781.25;5397778;26;20088;-71
2024/04/10 10:43:07;;;;;;;4.25;1.13;;;;;;;19.55;42.82;102775.38;5397153;26;20595;-68
2024/04/10 10:45:34;;;;;;;2.95;0.95;;;;;;;19.62;42.88;102786.44;5400482;26;19992;-68
2024/04/10 10:48:04;;;;;;;6.25;1.35;;;;;;;19.48;42.89;102757.28;5400658;26;19992;-68
2024/04/10 10:50:30;;;;;;;4.88;0.90;;;;;;;19.56;42.76;102786.78;5396539;26;19995;-69
2024/04/10 10:52:56;;;;;;;4.43;1.17;;;;;;;19.38;42.67;102756.97;5396696;26;20428;-71
2024/04/10 10:55:23;;;;;;;5.50;0.80;;;;;;;19.54;42.59;102801.91;5397620;26;20068;-68
2024/04/10 10:57:48;;;;;;;3.95;0.93;;;;;;;19.47;41.90;102779.38;5397668;26;20072;-68
2024/04/10 11:00:16;;;;;;;3.55;0.88;;;;;;;19.46;42.23;102782.97;5398644;26;20942;-69
2024/04/10 11:02:42;;;;;;;2.67;0.80;;;;;;;19.51;42.33;102802.06;5396197;26;20044;-69
2024/04/10 11:05:14;;;;;;;4.05;1.23;;;;;;;19.45;42.23;102783.91;5398665;26;19992;-67
2024/04/10 11:07:41;;;;;;;4.15;1.05;;;;;;;19.51;42.31;102783.56;5397880;26;20019;-68
2024/04/10 11:10:09;;;;;;;3.80;1.00;;;;;;;19.50;42.19;102790.66;5397299;26;20003;-70
2024/04/10 11:12:34;;;;;;;5.13;1.45;;;;;;;19.57;42.15;102807.03;5396953;26;20030;-69
2024/04/10 11:15:08;;;;;;;3.95;1.00;;;;;;;19.51;42.27;102789.69;5397309;26;20015;-68
2024/04/10 11:17:34;;;;;;;3.58;1.00;;;;;;;19.35;41.75;102759.78;5397894;26;20467;-68
2024/04/10 11:19:59;;;;;;;4.53;0.82;;;;;;;19.55;42.10;102799.19;5398214;26;20000;-68
2024/04/10 11:22:25;;;;;;;4.00;1.23;;;;;;;19.57;42.01;102783.22;5398399;26;19999;-73
2024/04/10 11:24:51;;;;;;;2.78;0.80;;;;;;;19.61;42.26;102797.13;5399029;26;21372;-68
2024/04/10 11:27:18;;;;;;;5.55;1.23;;;;;;;19.57;42.29;102781.41;5398642;26;20449;-68